Time;durP1;ratioP1;P1;durP2;ratioP2;P2;SDS_P1;SDS_P2;PMS_P1;PMS_P2;Temp;Humidity;BMP_temperature;BMP_pressure;BME280_temperature;BME280_humidity;BME280_pressure;Samples;Min_cycle;Max_cycle;Signal;HPM_P1;HPM_P2
2024/02/20 00:02:20;;;;;;;5.00;2.25;;;;;;;;;;5057075;28;20036;-67
2024/02/20 00:04:46;;;;;;;4.22;2.15;;;;;;;;;;5052907;28;20060;-70
2024/02/20 00:07:12;;;;;;;4.45;2.40;;;;;;;;;;5061558;28;20040;-69
2024/02/20 00:09:39;;;;;;;3.83;2.42;;;;;;;;;;5055370;28;20052;-70
2024/02/20 00:12:05;;;;;;;5.03;2.63;;;;;;;;;;5054650;28;20034;-69
2024/02/20 00:14:31;;;;;;;5.13;2.38;;;;;;;;;;5052344;28;20049;-70
2024/02/20 00:16:57;;;;;;;3.88;2.13;;;;;;;;;;5055222;28;20499;-69
2024/02/20 00:19:23;;;;;;;2.83;2.15;;;;;;;;;;5053466;28;20032;-70
2024/02/20 00:21:49;;;;;;;5.18;2.22;;;;;;;;;;5050248;28;20105;-69
2024/02/20 00:24:16;;;;;;;4.07;2.40;;;;;;;;;;5054809;28;20041;-69
2024/02/20 00:26:43;;;;;;;3.60;2.20;;;;;;;;;;5056870;28;20044;-69
2024/02/20 00:29:09;;;;;;;5.68;2.10;;;;;;;;;;5054766;28;20033;-69
2024/02/20 00:31:36;;;;;;;3.92;2.70;;;;;;;;;;5052097;28;20040;-68
2024/02/20 00:34:02;;;;;;;3.15;2.00;;;;;;;;;;5053170;28;20488;-69
2024/02/20 00:36:29;;;;;;;3.75;2.55;;;;;;;;;;5053930;28;20388;-67
2024/02/20 00:38:55;;;;;;;3.58;2.30;;;;;;;;;;5052361;28;20041;-69
2024/02/20 00:41:22;;;;;;;3.90;2.75;;;;;;;;;;5051510;28;20060;-69
2024/02/20 00:43:48;;;;;;;3.97;2.33;;;;;;;;;;5056022;28;20052;-69
2024/02/20 00:46:22;;;;;;;3.53;2.17;;;;;;;;;;5053839;28;20067;-69
2024/02/20 00:48:49;;;;;;;3.55;2.10;;;;;;;;;;5053699;28;20057;-69
2024/02/20 00:51:19;;;;;;;3.17;2.17;;;;;;;;;;5056394;28;20091;-69
2024/02/20 00:53:46;;;;;;;3.67;2.05;;;;;;;;;;5052146;28;20049;-69
2024/02/20 00:56:12;;;;;;;3.50;2.10;;;;;;;;;;5052470;28;20476;-66
2024/02/20 00:58:38;;;;;;;3.85;2.30;;;;;;;;;;5056645;28;20049;-70
2024/02/20 01:01:09;;;;;;;3.67;2.05;;;;;;;;;;5059176;28;20044;-69
2024/02/20 01:03:39;;;;;;;3.92;2.03;;;;;;;;;;5049267;28;20040;-67
2024/02/20 01:06:06;;;;;;;3.58;2.13;;;;;;;;;;5053690;28;20041;-67
2024/02/20 01:08:34;;;;;;;2.58;1.95;;;;;;;;;;5053731;28;20037;-67
2024/02/20 01:11:00;;;;;;;3.90;2.63;;;;;;;;;;5050502;28;20029;-66
2024/02/20 01:13:26;;;;;;;3.10;2.17;;;;;;;;;;5054652;28;20048;-66
2024/02/20 01:15:52;;;;;;;3.88;2.15;;;;;;;;;;5050286;28;20055;-66
2024/02/20 01:18:18;;;;;;;3.15;1.83;;;;;;;;;;5055057;28;20043;-66
2024/02/20 01:20:44;;;;;;;3.30;2.05;;;;;;;;;;5054826;28;20499;-66
2024/02/20 01:23:10;;;;;;;4.00;1.80;;;;;;;;;;5052152;28;20039;-66
2024/02/20 01:25:36;;;;;;;3.72;1.90;;;;;;;;;;5050687;28;20033;-66
2024/02/20 01:28:03;;;;;;;2.63;1.80;;;;;;;;;;5054095;28;20036;-66
2024/02/20 01:30:29;;;;;;;2.92;1.50;;;;;;;;;;5054962;28;20036;-66
2024/02/20 01:32:57;;;;;;;4.38;1.83;;;;;;;;;;5051620;28;20037;-66
2024/02/20 01:35:24;;;;;;;1.92;1.50;;;;;;;;;;5051454;28;20032;-66
2024/02/20 01:37:50;;;;;;;2.33;1.60;;;;;;;;;;5050356;28;20050;-66
2024/02/20 01:40:16;;;;;;;3.60;2.08;;;;;;;;;;5048905;28;20342;-66
2024/02/20 01:42:43;;;;;;;3.00;1.98;;;;;;;;;;5052639;28;20029;-67
2024/02/20 01:45:09;;;;;;;3.75;2.22;;;;;;;;;;5051996;28;20045;-66
2024/02/20 01:47:39;;;;;;;3.28;1.98;;;;;;;;;;5049328;28;20056;-66
2024/02/20 01:50:06;;;;;;;3.13;2.15;;;;;;;;;;5053018;28;20475;-66
2024/02/20 01:52:32;;;;;;;3.85;2.10;;;;;;;;;;5051757;28;20033;-66
2024/02/20 01:55:01;;;;;;;3.58;2.50;;;;;;;;;;5052995;28;20067;-66
2024/02/20 01:57:27;;;;;;;5.07;2.60;;;;;;;;;;5049214;28;20045;-66
2024/02/20 01:59:55;;;;;;;6.38;2.50;;;;;;;;;;5055099;28;20372;-66
2024/02/20 02:02:21;;;;;;;4.68;2.75;;;;;;;;;;5053768;28;20060;-66
2024/02/20 02:04:47;;;;;;;4.03;2.60;;;;;;;;;;5049688;28;20071;-66
2024/02/20 02:07:13;;;;;;;5.15;3.22;;;;;;;;;;5054375;28;20045;-66
2024/02/20 02:09:39;;;;;;;4.05;2.20;;;;;;;;;;5049463;28;20048;-67
2024/02/20 02:12:06;;;;;;;7.22;2.70;;;;;;;;;;5051300;28;20045;-67
2024/02/20 02:14:32;;;;;;;7.55;3.00;;;;;;;;;;5050258;28;20543;-67
2024/02/20 02:16:58;;;;;;;3.70;2.70;;;;;;;;;;5052932;28;20049;-67
2024/02/20 02:19:24;;;;;;;5.35;2.70;;;;;;;;;;5052175;28;20049;-66
2024/02/20 02:21:51;;;;;;;4.45;2.28;;;;;;;;;;5049098;28;20045;-66
2024/02/20 02:24:17;;;;;;;4.78;2.60;;;;;;;;;;5056258;28;20032;-67
2024/02/20 02:26:44;;;;;;;4.88;2.80;;;;;;;;;;5050939;28;20376;-67
2024/02/20 02:29:10;;;;;;;5.38;2.53;;;;;;;;;;5052457;28;20428;-67
2024/02/20 02:31:36;;;;;;;6.47;2.78;;;;;;;;;;5048753;28;20416;-67
2024/02/20 02:34:02;;;;;;;4.90;2.63;;;;;;;;;;5050135;28;20036;-67
2024/02/20 02:36:28;;;;;;;5.15;2.38;;;;;;;;;;5049906;28;20037;-67
2024/02/20 02:38:55;;;;;;;6.18;2.60;;;;;;;;;;5048942;28;20032;-66
2024/02/20 02:41:22;;;;;;;7.30;2.63;;;;;;;;;;5049982;28;20041;-67
2024/02/20 02:43:50;;;;;;;4.32;2.67;;;;;;;;;;5047799;28;20041;-67
2024/02/20 02:46:16;;;;;;;3.58;2.15;;;;;;;;;;5054413;28;20037;-66
2024/02/20 02:48:43;;;;;;;4.90;2.50;;;;;;;;;;5049351;28;20033;-67
2024/02/20 02:51:09;;;;;;;3.55;2.58;;;;;;;;;;5052344;28;20056;-68
2024/02/20 02:53:35;;;;;;;5.47;2.58;;;;;;;;;;5052758;28;20388;-66
2024/02/20 02:56:07;;;;;;;5.90;2.47;;;;;;;;;;5050068;28;20049;-69
2024/02/20 02:58:33;;;;;;;4.38;2.45;;;;;;;;;;5050062;28;20051;-67
2024/02/20 03:00:59;;;;;;;4.53;2.47;;;;;;;;;;5052314;28;20051;-67
2024/02/20 03:03:26;;;;;;;3.92;2.50;;;;;;;;;;5049737;28;20397;-68
2024/02/20 03:05:52;;;;;;;5.05;2.08;;;;;;;;;;5048974;28;20051;-65
2024/02/20 03:08:18;;;;;;;5.30;2.47;;;;;;;;;;5050888;28;20025;-67
2024/02/20 03:10:44;;;;;;;5.35;2.42;;;;;;;;;;5049574;28;20048;-67
2024/02/20 03:13:10;;;;;;;4.43;2.45;;;;;;;;;;5053695;28;20477;-66
2024/02/20 03:15:37;;;;;;;7.18;2.90;;;;;;;;;;5056699;28;20769;-66
2024/02/20 03:18:03;;;;;;;4.30;2.72;;;;;;;;;;5058598;28;20032;-67
2024/02/20 03:20:29;;;;;;;5.38;3.03;;;;;;;;;;5052628;28;20136;-67
2024/02/20 03:22:55;;;;;;;5.15;2.75;;;;;;;;;;5054655;28;20135;-68
2024/02/20 03:25:21;;;;;;;5.65;3.10;;;;;;;;;;5051694;28;20516;-67
2024/02/20 03:27:49;;;;;;;5.93;2.97;;;;;;;;;;5055265;28;20047;-66
2024/02/20 03:30:16;;;;;;;6.57;2.70;;;;;;;;;;5052255;28;20056;-67
2024/02/20 03:32:42;;;;;;;4.05;2.50;;;;;;;;;;5051854;28;20056;-65
2024/02/20 03:35:12;;;;;;;4.53;2.88;;;;;;;;;;5052566;28;20039;-68
2024/02/20 03:37:38;;;;;;;6.13;3.00;;;;;;;;;;5055334;28;20059;-66
2024/02/20 03:40:05;;;;;;;7.15;2.75;;;;;;;;;;5054325;28;20464;-67
2024/02/20 03:42:31;;;;;;;7.45;2.83;;;;;;;;;;5041862;28;20044;-67
2024/02/20 03:44:57;;;;;;;4.93;2.60;;;;;;;;;;5057892;28;20052;-67
2024/02/20 03:47:23;;;;;;;7.28;2.80;;;;;;;;;;5054707;28;20475;-67
2024/02/20 03:49:50;;;;;;;4.43;2.45;;;;;;;;;;5056008;28;20056;-67
2024/02/20 03:52:16;;;;;;;6.22;2.67;;;;;;;;;;5053492;28;20392;-66
2024/02/20 03:54:43;;;;;;;4.78;2.85;;;;;;;;;;5056481;28;20049;-66
2024/02/20 03:57:10;;;;;;;5.30;2.75;;;;;;;;;;5055647;28;20044;-67
2024/02/20 03:59:37;;;;;;;7.55;2.65;;;;;;;;;;5050175;28;20029;-67
2024/02/20 04:02:03;;;;;;;4.95;2.60;;;;;;;;;;5051560;28;20037;-66
2024/02/20 04:04:29;;;;;;;4.35;2.67;;;;;;;;;;5051792;28;20037;-66
2024/02/20 04:06:55;;;;;;;6.47;2.60;;;;;;;;;;5054426;28;20060;-65
2024/02/20 04:09:21;;;;;;;4.85;2.50;;;;;;;;;;5051661;28;20045;-67
2024/02/20 04:11:47;;;;;;;6.50;2.58;;;;;;;;;;5053774;28;20049;-66
2024/02/20 04:14:14;;;;;;;7.72;3.30;;;;;;;;;;5055229;28;20045;-67
2024/02/20 04:16:40;;;;;;;6.25;2.65;;;;;;;;;;5050648;28;20057;-66
2024/02/20 04:19:06;;;;;;;7.70;2.83;;;;;;;;;;5056361;28;20037;-66
2024/02/20 04:21:32;;;;;;;8.27;2.67;;;;;;;;;;5052369;28;20037;-67
2024/02/20 04:23:58;;;;;;;8.23;3.10;;;;;;;;;;5051027;28;20049;-66
2024/02/20 04:26:24;;;;;;;8.30;2.97;;;;;;;;;;5054054;28;20045;-67
2024/02/20 04:28:50;;;;;;;6.80;2.35;;;;;;;;;;5051861;28;20642;-66
2024/02/20 04:31:16;;;;;;;6.88;2.55;;;;;;;;;;5050692;28;20063;-67
2024/02/20 04:33:42;;;;;;;6.93;2.78;;;;;;;;;;5051087;28;20519;-67
2024/02/20 04:36:09;;;;;;;6.25;2.33;;;;;;;;;;5051870;28;20033;-68
2024/02/20 04:38:35;;;;;;;7.63;2.40;;;;;;;;;;5050630;28;20512;-66
2024/02/20 04:41:01;;;;;;;7.15;2.25;;;;;;;;;;5053210;28;20053;-67
2024/02/20 04:43:27;;;;;;;9.88;2.65;;;;;;;;;;5050917;28;20527;-66
2024/02/20 04:45:53;;;;;;;6.07;2.85;;;;;;;;;;5053938;28;20057;-67
2024/02/20 04:48:19;;;;;;;7.03;2.45;;;;;;;;;;5053624;28;20045;-66
2024/02/20 04:50:46;;;;;;;7.10;2.45;;;;;;;;;;5053420;28;20423;-66
2024/02/20 04:53:12;;;;;;;10.57;2.47;;;;;;;;;;5056549;28;20408;-68
2024/02/20 04:55:38;;;;;;;6.53;2.17;;;;;;;;;;5051507;28;20036;-66
2024/02/20 04:58:05;;;;;;;6.03;3.13;;;;;;;;;;5052458;28;20032;-66
2024/02/20 05:00:32;;;;;;;6.82;2.30;;;;;;;;;;5057224;28;20500;-66
2024/02/20 05:02:58;;;;;;;7.85;2.58;;;;;;;;;;5057503;28;20029;-66
2024/02/20 05:05:24;;;;;;;10.52;2.65;;;;;;;;;;5050948;28;20036;-66
2024/02/20 05:07:51;;;;;;;8.40;2.25;;;;;;;;;;5047663;28;20052;-66
2024/02/20 05:10:17;;;;;;;8.88;3.72;;;;;;;;;;5040684;28;20048;-66
2024/02/20 05:12:43;;;;;;;13.48;5.30;;;;;;;;;;5040065;28;20041;-66
2024/02/20 05:15:10;;;;;;;13.52;4.00;;;;;;;;;;5045658;28;20041;-67
2024/02/20 05:17:36;;;;;;;13.07;3.55;;;;;;;;;;5052218;28;20051;-66
2024/02/20 05:20:02;;;;;;;10.68;3.90;;;;;;;;;;5051694;28;20511;-67
2024/02/20 05:22:28;;;;;;;8.25;3.33;;;;;;;;;;5055605;28;20055;-67
2024/02/20 05:24:54;;;;;;;13.38;3.60;;;;;;;;;;5045710;28;20040;-67
2024/02/20 05:27:21;;;;;;;9.48;3.00;;;;;;;;;;5050083;28;20051;-67
2024/02/20 05:29:47;;;;;;;4.72;2.55;;;;;;;;;;5053870;28;20040;-67
2024/02/20 05:32:13;;;;;;;6.63;2.50;;;;;;;;;;5056169;28;20044;-67
2024/02/20 05:34:41;;;;;;;12.10;3.53;;;;;;;;;;5051185;28;20029;-67
2024/02/20 05:37:07;;;;;;;5.55;2.50;;;;;;;;;;5049938;28;20033;-67
2024/02/20 05:39:33;;;;;;;6.85;2.15;;;;;;;;;;5052428;28;20029;-68
2024/02/20 05:41:59;;;;;;;10.05;2.65;;;;;;;;;;5056271;28;20071;-67
2024/02/20 05:44:25;;;;;;;7.00;2.92;;;;;;;;;;5053270;28;20682;-67
2024/02/20 05:46:51;;;;;;;6.35;2.40;;;;;;;;;;5052832;28;20028;-66
2024/02/20 05:49:17;;;;;;;6.18;2.40;;;;;;;;;;5052797;28;20052;-67
2024/02/20 05:51:45;;;;;;;6.13;2.17;;;;;;;;;;5054651;28;20063;-66
2024/02/20 05:54:11;;;;;;;6.40;2.92;;;;;;;;;;5053206;28;20413;-66
2024/02/20 05:56:37;;;;;;;11.50;2.92;;;;;;;;;;5051581;28;20053;-65
2024/02/20 05:59:04;;;;;;;15.52;3.83;;;;;;;;;;5054837;28;20056;-66
2024/02/20 06:01:30;;;;;;;12.73;3.97;;;;;;;;;;5047664;28;20037;-67
2024/02/20 06:03:56;;;;;;;11.00;3.67;;;;;;;;;;5050890;28;20045;-68
2024/02/20 06:06:23;;;;;;;5.45;2.25;;;;;;;;;;5047416;28;20476;-68
2024/02/20 06:08:50;;;;;;;5.25;2.80;;;;;;;;;;5049386;28;21580;-69
2024/02/20 06:11:22;;;;;;;6.13;2.88;;;;;;;;;;5048196;28;20055;-69
2024/02/20 06:13:49;;;;;;;10.50;2.40;;;;;;;;;;5034405;28;22380;-69
2024/02/20 06:16:15;;;;;;;12.82;2.72;;;;;;;;;;5054789;28;20048;-68
2024/02/20 06:18:41;;;;;;;9.43;2.95;;;;;;;;;;5048280;28;20551;-67
2024/02/20 06:21:08;;;;;;;6.22;2.40;;;;;;;;;;5046431;28;20056;-68
2024/02/20 06:23:44;;;;;;;13.95;2.90;;;;;;;;;;5048431;28;20041;-67
2024/02/20 06:26:10;;;;;;;7.45;2.25;;;;;;;;;;5048503;28;20037;-68
2024/02/20 06:28:37;;;;;;;10.48;2.88;;;;;;;;;;5046673;28;20414;-67
2024/02/20 06:31:05;;;;;;;8.48;2.47;;;;;;;;;;5043568;28;20048;-68
2024/02/20 06:33:31;;;;;;;7.88;2.80;;;;;;;;;;5049874;28;20040;-67
2024/02/20 06:35:57;;;;;;;10.60;2.90;;;;;;;;;;5047305;28;20049;-67
2024/02/20 06:38:26;;;;;;;9.55;2.40;;;;;;;;;;5049264;28;20104;-67
2024/02/20 06:40:52;;;;;;;9.33;2.03;;;;;;;;;;5051376;28;20037;-67
2024/02/20 06:43:18;;;;;;;9.18;2.15;;;;;;;;;;5053708;28;20555;-66
2024/02/20 06:45:44;;;;;;;11.80;2.67;;;;;;;;;;5053281;28;20052;-67
2024/02/20 06:48:10;;;;;;;11.73;2.63;;;;;;;;;;5053978;28;20416;-67
2024/02/20 06:50:36;;;;;;;10.48;2.40;;;;;;;;;;5053973;28;20056;-67
2024/02/20 06:53:02;;;;;;;8.20;2.55;;;;;;;;;;5062376;28;20040;-68
2024/02/20 06:55:29;;;;;;;9.48;2.92;;;;;;;;;;5055867;28;20036;-67
2024/02/20 06:57:57;;;;;;;11.10;2.72;;;;;;;;;;5055656;28;20036;-68
2024/02/20 07:00:24;;;;;;;10.35;2.42;;;;;;;;;;5061375;28;20055;-67
2024/02/20 07:02:51;;;;;;;7.13;2.50;;;;;;;;;;5054328;28;20052;-67
2024/02/20 07:05:17;;;;;;;5.80;2.60;;;;;;;;;;5055690;28;20045;-68
2024/02/20 07:07:46;;;;;;;9.48;1.90;;;;;;;;;;5056739;28;20056;-67
2024/02/20 07:10:13;;;;;;;9.85;2.65;;;;;;;;;;5053768;28;20049;-68
2024/02/20 07:12:39;;;;;;;11.32;2.00;;;;;;;;;;5058808;28;20051;-68
2024/02/20 07:15:08;;;;;;;10.23;2.22;;;;;;;;;;5056975;28;20045;-67
2024/02/20 07:17:35;;;;;;;11.02;2.78;;;;;;;;;;5051889;28;20496;-69
2024/02/20 07:20:02;;;;;;;10.20;3.20;;;;;;;;;;5053814;28;20045;-67
2024/02/20 07:22:32;;;;;;;9.75;3.20;;;;;;;;;;5060155;28;20040;-68
2024/02/20 07:24:59;;;;;;;9.03;3.50;;;;;;;;;;5050395;28;20048;-67
2024/02/20 07:27:25;;;;;;;8.88;2.70;;;;;;;;;;5054784;28;20036;-68
2024/02/20 07:29:51;;;;;;;5.57;2.10;;;;;;;;;;5053932;28;20395;-67
2024/02/20 07:32:17;;;;;;;11.32;3.00;;;;;;;;;;5056431;28;20053;-68
2024/02/20 07:34:46;;;;;;;14.77;3.92;;;;;;;;;;5053308;28;20029;-67
2024/02/20 07:37:12;;;;;;;14.63;3.08;;;;;;;;;;5055219;28;20045;-68
2024/02/20 07:39:39;;;;;;;13.98;4.30;;;;;;;;;;5059285;28;20056;-68
2024/02/20 07:42:07;;;;;;;6.57;2.50;;;;;;;;;;5055380;28;20056;-68
2024/02/20 07:44:34;;;;;;;11.75;3.20;;;;;;;;;;5051613;28;20373;-68
2024/02/20 07:47:00;;;;;;;13.40;2.92;;;;;;;;;;5052463;28;20051;-68
2024/02/20 07:49:26;;;;;;;10.63;2.85;;;;;;;;;;5051971;28;20044;-67
2024/02/20 07:51:53;;;;;;;12.73;2.92;;;;;;;;;;5055352;28;20047;-70
2024/02/20 07:54:19;;;;;;;7.47;2.85;;;;;;;;;;5058889;28;20107;-67
2024/02/20 07:56:46;;;;;;;14.50;4.30;;;;;;;;;;5055246;28;20033;-67
2024/02/20 07:59:12;;;;;;;12.82;3.38;;;;;;;;;;5054588;28;20037;-67
2024/02/20 08:01:38;;;;;;;10.20;2.80;;;;;;;;;;5053947;28;20051;-68
2024/02/20 08:04:05;;;;;;;10.30;3.00;;;;;;;;;;5051415;28;20037;-68
2024/02/20 08:06:31;;;;;;;11.70;3.45;;;;;;;;;;5062223;28;20520;-68
2024/02/20 08:08:58;;;;;;;10.15;2.95;;;;;;;;;;5054814;28;20032;-67
2024/02/20 08:11:24;;;;;;;6.90;2.70;;;;;;;;;;5050884;28;20484;-68
2024/02/20 08:13:50;;;;;;;11.55;2.50;;;;;;;;;;5053002;28;20041;-67
2024/02/20 08:16:16;;;;;;;9.20;2.75;;;;;;;;;;5050804;28;20036;-68
2024/02/20 08:18:43;;;;;;;5.88;1.98;;;;;;;;;;5051050;28;20045;-68
2024/02/20 08:21:10;;;;;;;7.55;2.78;;;;;;;;;;5054350;28;20036;-68
2024/02/20 08:23:38;;;;;;;7.97;2.83;;;;;;;;;;5053097;28;20508;-67
2024/02/20 08:26:04;;;;;;;5.50;2.90;;;;;;;;;;5050636;28;20045;-68
2024/02/20 08:28:31;;;;;;;8.68;1.98;;;;;;;;;;5051193;28;20040;-66
2024/02/20 08:30:57;;;;;;;10.63;2.80;;;;;;;;;;5051772;28;20658;-68
2024/02/20 08:33:24;;;;;;;7.80;2.92;;;;;;;;;;5054791;28;20055;-67
2024/02/20 08:35:50;;;;;;;11.30;2.70;;;;;;;;;;5049858;28;20036;-68
2024/02/20 08:38:16;;;;;;;7.85;2.28;;;;;;;;;;5050214;28;20155;-68
2024/02/20 08:40:42;;;;;;;5.68;2.28;;;;;;;;;;5050541;28;20037;-67
2024/02/20 08:43:08;;;;;;;7.35;2.75;;;;;;;;;;5052844;28;20048;-67
2024/02/20 08:45:35;;;;;;;12.13;2.88;;;;;;;;;;5053761;28;20032;-68
2024/02/20 08:48:01;;;;;;;9.85;2.65;;;;;;;;;;5054877;28;20045;-68
2024/02/20 08:50:28;;;;;;;10.38;2.55;;;;;;;;;;5055618;28;20041;-67
2024/02/20 08:52:54;;;;;;;5.93;2.90;;;;;;;;;;5052718;28;20029;-67
2024/02/20 08:55:20;;;;;;;10.07;2.88;;;;;;;;;;5052331;28;20044;-67
2024/02/20 08:57:46;;;;;;;7.90;2.72;;;;;;;;;;5049656;28;20048;-68
2024/02/20 09:00:13;;;;;;;6.97;2.53;;;;;;;;;;5052856;28;20492;-68
2024/02/20 09:02:40;;;;;;;8.82;2.15;;;;;;;;;;5050261;28;20056;-68
2024/02/20 09:05:09;;;;;;;5.45;2.20;;;;;;;;;;5049854;28;20481;-68
2024/02/20 09:07:36;;;;;;;12.20;2.70;;;;;;;;;;5053159;28;20029;-68
2024/02/20 09:10:06;;;;;;;10.07;2.70;;;;;;;;;;5053300;28;20052;-68
2024/02/20 09:12:33;;;;;;;;;;;;;;;;;;5053434;28;20540;-68
2024/02/20 09:15:01;;;;;;;6.18;2.03;;;;;;;;;;5052239;28;20289;-68
2024/02/20 09:17:28;;;;;;;11.43;2.70;;;;;;;;;;5051740;28;20056;-69
2024/02/20 09:19:55;;;;;;;10.40;2.15;;;;;;;;;;5050386;28;20037;-69
2024/02/20 09:22:21;;;;;;;13.20;2.65;;;;;;;;;;5052547;28;20361;-68
2024/02/20 09:24:48;;;;;;;19.08;4.13;;;;;;;;;;5049337;28;20060;-68
2024/02/20 09:27:14;;;;;;;8.52;2.40;;;;;;;;;;5051407;28;20033;-68
2024/02/20 09:29:40;;;;;;;10.48;2.33;;;;;;;;;;5052029;28;20120;-67
2024/02/20 09:32:06;;;;;;;6.63;2.25;;;;;;;;;;5053394;28;20056;-68
2024/02/20 09:34:33;;;;;;;14.02;2.63;;;;;;;;;;5051953;28;20396;-67
2024/02/20 09:36:59;;;;;;;12.32;2.83;;;;;;;;;;5050708;28;20044;-68
2024/02/20 09:39:25;;;;;;;8.52;2.40;;;;;;;;;;5049181;28;20404;-67
2024/02/20 09:41:53;;;;;;;16.00;5.93;;;;;;;;;;5052169;28;20036;-66
2024/02/20 09:44:20;;;;;;;12.48;4.68;;;;;;;;;;5051451;28;20044;-68
2024/02/20 09:46:54;;;;;;;12.50;3.30;;;;;;;;;;5053494;28;20048;-68
2024/02/20 09:49:21;;;;;;;12.18;4.18;;;;;;;;;;5051053;28;20051;-68
2024/02/20 09:51:47;;;;;;;15.02;3.53;;;;;;;;;;5054343;28;20053;-69
2024/02/20 09:54:14;;;;;;;13.20;4.30;;;;;;;;;;5058030;28;20049;-68
2024/02/20 09:56:42;;;;;;;11.13;3.38;;;;;;;;;;5053542;28;20144;-68
2024/02/20 09:59:10;;;;;;;11.88;3.03;;;;;;;;;;5053907;28;20487;-68
2024/02/20 10:01:37;;;;;;;6.60;2.28;;;;;;;;;;5043430;28;20044;-65
2024/02/20 10:04:08;;;;;;;8.73;2.58;;;;;;;;;;5050304;28;20041;-67
2024/02/20 10:06:34;;;;;;;12.50;2.63;;;;;;;;;;5049973;28;20473;-68
2024/02/20 10:09:01;;;;;;;12.50;3.28;;;;;;;;;;5050144;28;20049;-67
2024/02/20 10:11:27;;;;;;;10.38;2.60;;;;;;;;;;5052052;28;20044;-67
2024/02/20 10:13:55;;;;;;;9.70;2.63;;;;;;;;;;5048710;28;20037;-67
2024/02/20 10:16:22;;;;;;;15.90;2.80;;;;;;;;;;5051454;28;20389;-67
2024/02/20 10:18:59;;;;;;;10.77;3.47;;;;;;;;;;5052687;28;20036;-67
2024/02/20 10:21:26;;;;;;;8.50;3.20;;;;;;;;;;5046646;28;20052;-66
2024/02/20 10:24:08;;;;;;;10.73;2.67;;;;;;;;;;5050267;28;20458;-69
2024/02/20 10:26:36;;;;;;;10.18;2.65;;;;;;;;;;5048496;28;20029;-67
2024/02/20 10:29:05;;;;;;;9.75;2.30;;;;;;;;;;5051803;28;20048;-68
2024/02/20 10:31:32;;;;;;;12.10;1.98;;;;;;;;;;5048734;28;20132;-67
2024/02/20 10:33:59;;;;;;;9.20;1.88;;;;;;;;;;5050817;28;20049;-67
2024/02/20 10:36:28;;;;;;;8.63;2.45;;;;;;;;;;5050294;28;20029;-67
2024/02/20 10:39:04;;;;;;;11.32;2.60;;;;;;;;;;5049416;28;20040;-67
2024/02/20 10:41:31;;;;;;;11.50;3.58;;;;;;;;;;5053002;28;20048;-67
2024/02/20 10:43:57;;;;;;;9.35;2.47;;;;;;;;;;5051980;28;20056;-67
2024/02/20 10:46:26;;;;;;;9.25;2.30;;;;;;;;;;5058918;28;20396;-67
2024/02/20 10:48:55;;;;;;;10.50;3.97;;;;;;;;;;5045993;28;20029;-67
2024/02/20 10:51:26;;;;;;;9.52;3.10;;;;;;;;;;5055204;28;20404;-67
2024/02/20 10:53:55;;;;;;;20.42;8.25;;;;;;;;;;5048650;28;20404;-67
2024/02/20 10:56:21;;;;;;;11.38;3.60;;;;;;;;;;5054321;28;20079;-68
2024/02/20 10:58:49;;;;;;;8.38;2.92;;;;;;;;;;5048408;28;20056;-67
2024/02/20 11:01:16;;;;;;;11.85;2.67;;;;;;;;;;5046733;28;20033;-67
2024/02/20 11:03:43;;;;;;;10.68;2.80;;;;;;;;;;5051859;28;20052;-67
2024/02/20 11:06:10;;;;;;;9.27;2.85;;;;;;;;;;5051394;28;20051;-67
2024/02/20 11:08:37;;;;;;;10.77;2.08;;;;;;;;;;5051672;28;20530;-67
2024/02/20 11:11:13;;;;;;;5.93;2.10;;;;;;;;;;5050030;28;20049;-68
2024/02/20 11:13:40;;;;;;;9.32;2.58;;;;;;;;;;5055188;28;20044;-67
2024/02/20 11:16:14;;;;;;;7.85;2.70;;;;;;;;;;5046446;28;20430;-67
2024/02/20 11:18:53;;;;;;;7.82;2.58;;;;;;;;;;5048997;28;20115;-67
2024/02/20 11:21:27;;;;;;;10.77;2.30;;;;;;;;;;5047812;28;20056;-68
2024/02/20 11:23:54;;;;;;;13.75;2.63;;;;;;;;;;5047943;28;20037;-68
2024/02/20 11:26:32;;;;;;;10.10;2.25;;;;;;;;;;5050693;28;20032;-68
2024/02/20 11:28:59;;;;;;;7.00;2.00;;;;;;;;;;5048706;28;20056;-67
2024/02/20 11:31:27;;;;;;;9.52;2.20;;;;;;;;;;5053834;28;20060;-67
2024/02/20 11:33:57;;;;;;;8.52;2.03;;;;;;;;;;5059656;28;20048;-67
2024/02/20 11:36:24;;;;;;;12.05;2.20;;;;;;;;;;5049996;28;20461;-68
2024/02/20 11:39:06;;;;;;;6.90;2.55;;;;;;;;;;5053716;28;20068;-67
2024/02/20 11:41:33;;;;;;;11.13;3.17;;;;;;;;;;5052150;28;20503;-68
2024/02/20 11:44:03;;;;;;;9.32;2.10;;;;;;;;;;5057881;28;20396;-68
2024/02/20 11:46:31;;;;;;;14.52;3.33;;;;;;;;;;5056708;28;20427;-67
2024/02/20 11:48:59;;;;;;;10.70;3.47;;;;;;;;;;5054040;28;20037;-67
2024/02/20 11:51:26;;;;;;;10.65;3.00;;;;;;;;;;5053223;28;20055;-66
2024/02/20 11:54:06;;;;;;;10.20;2.88;;;;;;;;;;5058739;28;20036;-70
2024/02/20 11:56:37;;;;;;;14.52;3.30;;;;;;;;;;5049813;28;20044;-70
2024/02/20 11:59:04;;;;;;;13.20;3.65;;;;;;;;;;5054854;28;20028;-68
2024/02/20 12:01:32;;;;;;;11.27;2.83;;;;;;;;;;5054408;28;20033;-68
2024/02/20 12:04:07;;;;;;;10.38;3.55;;;;;;;;;;5054135;28;20029;-67
2024/02/20 12:06:35;;;;;;;6.43;1.95;;;;;;;;;;5055525;28;20108;-67
2024/02/20 12:09:03;;;;;;;10.00;2.40;;;;;;;;;;5051993;28;20059;-66
2024/02/20 12:11:30;;;;;;;8.63;2.55;;;;;;;;;;5056002;28;20472;-69
2024/02/20 12:13:59;;;;;;;7.68;1.98;;;;;;;;;;5051074;28;20045;-68
2024/02/20 12:16:29;;;;;;;10.07;2.00;;;;;;;;;;5079015;22;20053;-60
2024/02/20 12:18:57;;;;;;;7.97;2.15;;;;;;;;;;5063219;28;20067;-61
2024/02/20 12:21:24;;;;;;;9.93;2.10;;;;;;;;;;5061126;28;20040;-60
2024/02/20 12:23:55;;;;;;;11.23;2.58;;;;;;;;;;5061236;28;20049;-60
2024/02/20 12:26:22;;;;;;;6.97;2.25;;;;;;;;;;5078711;28;20043;-60
2024/02/20 12:28:49;;;;;;;9.43;2.40;;;;;;;;;;5081349;28;20044;-60
2024/02/20 12:31:21;;;;;;;12.50;2.47;;;;;;;;;;5080188;28;20043;-61
2024/02/20 12:33:47;;;;;;;6.93;2.03;;;;;;;;;;5076683;28;20049;-60
2024/02/20 12:36:13;;;;;;;8.93;2.20;;;;;;;;;;5081406;28;20040;-61
2024/02/20 12:38:41;;;;;;;9.43;2.25;;;;;;;;;;5081696;28;20048;-60
2024/02/20 12:41:08;;;;;;;9.00;2.63;;;;;;;;;;5075180;28;20039;-60
2024/02/20 12:43:34;;;;;;;7.25;2.22;;;;;;;;;;5078164;28;20032;-61
2024/02/20 12:46:00;;;;;;;8.23;2.53;;;;;;;;;;5079755;28;20047;-60
2024/02/20 12:48:26;;;;;;;11.20;2.47;;;;;;;;;;5086366;28;20045;-62
2024/02/20 12:50:53;;;;;;;9.73;2.40;;;;;;;;;;5089566;28;20055;-61
2024/02/20 12:53:19;;;;;;;9.38;2.50;;;;;;;;;;5078247;28;20047;-60
2024/02/20 12:55:45;;;;;;;8.88;2.95;;;;;;;;;;5073640;28;20043;-60
2024/02/20 12:58:12;;;;;;;6.57;2.10;;;;;;;;;;5071408;28;20028;-60
2024/02/20 13:00:38;;;;;;;9.25;2.85;;;;;;;;;;5078982;28;20047;-61
2024/02/20 13:03:07;;;;;;;9.02;2.40;;;;;;;;;;5078505;28;20039;-60
2024/02/20 13:05:33;;;;;;;7.50;2.43;;;;;;;;;;5072265;28;20503;-60
2024/02/20 13:08:01;;;;;;;6.43;2.20;;;;;;;;;;5086151;28;20047;-60
2024/02/20 13:10:28;;;;;;;9.50;2.20;;;;;;;;;;5080746;28;20036;-60
2024/02/20 13:12:55;;;;;;;6.68;2.10;;;;;;;;;;5082963;28;20055;-61
2024/02/20 13:15:22;;;;;;;7.45;2.40;;;;;;;;;;5081202;28;20037;-61
2024/02/20 13:17:51;;;;;;;9.32;2.25;;;;;;;;;;5079275;28;20035;-60
2024/02/20 13:20:17;;;;;;;4.63;1.85;;;;;;;;;;5078142;28;20036;-60
2024/02/20 13:22:44;;;;;;;7.20;2.20;;;;;;;;;;5076414;28;20048;-60
2024/02/20 13:25:10;;;;;;;10.00;2.22;;;;;;;;;;5074149;28;20415;-61
2024/02/20 13:27:36;;;;;;;5.07;1.73;;;;;;;;;;5075261;28;20055;-61
2024/02/20 13:30:03;;;;;;;11.98;2.00;;;;;;;;;;5076629;28;20696;-60
2024/02/20 13:32:30;;;;;;;6.30;1.67;;;;;;;;;;5075751;28;20032;-60
2024/02/20 13:34:57;;;;;;;10.20;2.17;;;;;;;;;;5082648;28;20404;-61
2024/02/20 13:37:26;;;;;;;14.25;2.22;;;;;;;;;;5080217;28;20048;-61
2024/02/20 13:39:53;;;;;;;8.35;2.40;;;;;;;;;;5079233;28;20051;-61
2024/02/20 13:42:20;;;;;;;11.45;2.50;;;;;;;;;;5073361;28;20039;-60
2024/02/20 13:44:46;;;;;;;6.97;2.15;;;;;;;;;;5071903;28;20029;-59
2024/02/20 13:47:14;;;;;;;12.15;2.78;;;;;;;;;;5058677;28;20051;-60
2024/02/20 13:49:40;;;;;;;8.52;2.15;;;;;;;;;;5072372;28;20048;-60
2024/02/20 13:52:06;;;;;;;6.90;2.22;;;;;;;;;;5078620;28;20046;-61
2024/02/20 13:54:33;;;;;;;9.30;2.00;;;;;;;;;;5074168;28;20028;-60
2024/02/20 13:56:59;;;;;;;6.80;2.38;;;;;;;;;;5076474;28;20044;-61
2024/02/20 13:59:25;;;;;;;7.13;2.05;;;;;;;;;;5074555;28;20048;-61
2024/02/20 14:01:52;;;;;;;8.73;2.33;;;;;;;;;;5071400;28;20055;-63
2024/02/20 14:04:18;;;;;;;9.98;2.60;;;;;;;;;;5062110;28;20518;-60
2024/02/20 14:06:45;;;;;;;14.07;2.78;;;;;;;;;;5079365;28;20043;-61
2024/02/20 14:09:11;;;;;;;4.47;2.47;;;;;;;;;;5058156;28;20641;-63
2024/02/20 14:11:38;;;;;;;11.55;2.95;;;;;;;;;;5071617;28;20040;-61
2024/02/20 14:14:05;;;;;;;9.95;2.63;;;;;;;;;;5073550;28;20067;-62
2024/02/20 14:16:31;;;;;;;9.75;3.28;;;;;;;;;;5071664;28;20043;-61
2024/02/20 14:18:58;;;;;;;10.60;2.88;;;;;;;;;;5075905;28;20040;-61
2024/02/20 14:21:25;;;;;;;8.80;3.17;;;;;;;;;;5075259;28;20487;-64
2024/02/20 14:23:51;;;;;;;8.32;2.70;;;;;;;;;;5076648;28;20055;-61
2024/02/20 14:26:17;;;;;;;11.85;3.72;;;;;;;;;;5070767;28;20424;-61
2024/02/20 14:28:45;;;;;;;9.15;2.88;;;;;;;;;;5082541;28;20056;-62
2024/02/20 14:31:11;;;;;;;8.60;3.15;;;;;;;;;;5079356;28;20039;-61
2024/02/20 14:33:37;;;;;;;11.98;3.25;;;;;;;;;;5074552;28;20044;-60
2024/02/20 14:36:05;;;;;;;11.18;3.40;;;;;;;;;;5077987;28;20039;-62
2024/02/20 14:38:31;;;;;;;8.57;2.97;;;;;;;;;;5080391;28;20044;-60